sensor_id;sensor_type;location;lat;lon;timestamp;pressure;altitude;pressure_sealevel;temperature;humidity
21664;BME280;10993;52.510;13.456;2024-02-26T00:04:08;57067.00;;;-146.93;94.66
21664;BME280;10993;52.510;13.456;2024-02-26T00:09:09;57060.94;;;-146.93;93.92
21664;BME280;10993;52.510;13.456;2024-02-26T00:14:10;57030.56;;;-146.93;94.43
21664;BME280;10993;52.510;13.456;2024-02-26T00:19:11;57119.66;;;-146.93;95.01
21664;BME280;10993;52.510;13.456;2024-02-26T00:24:11;57549.00;;;-146.93;95.62
21664;BME280;10993;52.510;13.456;2024-02-26T00:29:13;57148.00;;;-146.93;94.64
21664;BME280;10993;52.510;13.456;2024-02-26T00:34:13;57099.41;;;-146.93;94.10
21664;BME280;10993;52.510;13.456;2024-02-26T00:39:13;57083.19;;;-146.93;95.18
21664;BME280;10993;52.510;13.456;2024-02-26T00:44:15;57160.16;;;-146.93;95.52
21664;BME280;10993;52.510;13.456;2024-02-26T00:49:15;57202.69;;;-146.93;96.12
21664;BME280;10993;52.510;13.456;2024-02-26T00:54:16;57366.72;;;-146.93;97.50
21664;BME280;10993;52.510;13.456;2024-02-26T00:59:17;57425.44;;;-146.93;97.83
21664;BME280;10993;52.510;13.456;2024-02-26T01:04:18;57421.41;;;-146.93;97.77
21664;BME280;10993;52.510;13.456;2024-02-26T01:09:18;57421.41;;;-146.93;98.14
21664;BME280;10993;52.510;13.456;2024-02-26T01:14:20;57496.31;;;-146.93;98.63
21664;BME280;10993;52.510;13.456;2024-02-26T01:19:20;57512.53;;;-146.93;99.15
21664;BME280;10993;52.510;13.456;2024-02-26T01:24:21;57512.53;;;-146.93;98.77
21664;BME280;10993;52.510;13.456;2024-02-26T01:29:23;57451.78;;;-146.93;98.72
21664;BME280;10993;52.510;13.456;2024-02-26T01:34:23;57457.84;;;-146.93;98.16
21664;BME280;10993;52.510;13.456;2024-02-26T01:39:23;57646.19;;;-146.93;99.73
21664;BME280;10993;52.510;13.456;2024-02-26T01:44:26;57869.00;;;-146.93;100.00
21664;BME280;10993;52.510;13.456;2024-02-26T01:49:26;57891.28;;;-146.93;100.00
21664;BME280;10993;52.510;13.456;2024-02-26T01:54:29;57816.34;;;-146.93;100.00
21664;BME280;10993;52.510;13.456;2024-02-26T01:59:31;57709.00;;;-146.93;99.78
21664;BME280;10993;52.510;13.456;2024-02-26T02:04:32;57787.97;;;-146.93;100.00
21664;BME280;10993;52.510;13.456;2024-02-26T02:09:32;57771.78;;;-146.93;99.74
21664;BME280;10993;52.510;13.456;2024-02-26T02:14:34;57698.84;;;-146.93;99.71
21664;BME280;10993;52.510;13.456;2024-02-26T02:19:34;57925.72;;;-146.93;100.00
21664;BME280;10993;52.510;13.456;2024-02-26T02:24:36;57830.50;;;-146.93;100.00
21664;BME280;10993;52.510;13.456;2024-02-26T02:29:37;57715.06;;;-146.93;99.83
21664;BME280;10993;52.510;13.456;2024-02-26T02:34:37;57808.22;;;-146.93;99.81
21664;BME280;10993;52.510;13.456;2024-02-26T02:39:39;57765.69;;;-146.93;99.64
21664;BME280;10993;52.510;13.456;2024-02-26T02:44:39;58249.81;;;-146.93;99.95
21664;BME280;10993;52.510;13.456;2024-02-26T02:49:39;57822.41;;;-146.93;100.00
21664;BME280;10993;52.510;13.456;2024-02-26T02:54:41;57751.53;;;-146.93;99.96
21664;BME280;10993;52.510;13.456;2024-02-26T02:59:42;57828.47;;;-146.93;100.00
21664;BME280;10993;52.510;13.456;2024-02-26T03:04:43;57998.63;;;-146.93;100.00
21664;BME280;10993;52.510;13.456;2024-02-26T03:09:44;58063.44;;;-146.93;100.00
21664;BME280;10993;52.510;13.456;2024-02-26T03:14:45;58180.94;;;-146.93;100.00
21664;BME280;10993;52.510;13.456;2024-02-26T03:19:45;58274.13;;;-146.93;100.00
21664;BME280;10993;52.510;13.456;2024-02-26T03:24:54;58310.56;;;-146.93;100.00
21664;BME280;10993;52.510;13.456;2024-02-26T03:29:54;58419.97;;;-146.93;100.00
21664;BME280;10993;52.510;13.456;2024-02-26T03:34:55;58355.16;;;-146.93;100.00
21664;BME280;10993;52.510;13.456;2024-02-26T03:39:57;58263.97;;;-146.93;100.00
21664;BME280;10993;52.510;13.456;2024-02-26T03:44:58;58229.53;;;-146.93;100.00
21664;BME280;10993;52.510;13.456;2024-02-26T03:49:58;58460.47;;;-146.93;100.00
21664;BME280;10993;52.510;13.456;2024-02-26T03:55:00;58553.69;;;-146.93;100.00
21664;BME280;10993;52.510;13.456;2024-02-26T04:00:01;58405.78;;;-146.93;100.00
21664;BME280;10993;52.510;13.456;2024-02-26T04:05:01;58507.09;;;-146.93;100.00
21664;BME280;10993;52.510;13.456;2024-02-26T04:10:03;58529.38;;;-146.93;100.00
21664;BME280;10993;52.510;13.456;2024-02-26T04:15:06;58618.50;;;-146.93;100.00
21664;BME280;10993;52.510;13.456;2024-02-26T04:20:07;58565.81;;;-146.93;100.00
21664;BME280;10993;52.510;13.456;2024-02-26T04:25:09;58521.25;;;-146.93;100.00
21664;BME280;10993;52.510;13.456;2024-02-26T04:30:11;58738.03;;;-146.93;100.00
21664;BME280;10993;52.510;13.456;2024-02-26T04:35:11;58596.22;;;-146.93;100.00
21664;BME280;10993;52.510;13.456;2024-02-26T04:40:13;58748.16;;;-146.93;100.00
21664;BME280;10993;52.510;13.456;2024-02-26T04:45:13;58817.06;;;-146.93;100.00
21664;BME280;10993;52.510;13.456;2024-02-26T04:50:14;58517.22;;;-146.93;100.00
21664;BME280;10993;52.510;13.456;2024-02-26T04:55:16;58369.31;;;-146.93;100.00
21664;BME280;10993;52.510;13.456;2024-02-26T05:00:16;58618.50;;;-146.93;100.00
21664;BME280;10993;52.510;13.456;2024-02-26T05:05:17;58634.72;;;-146.93;100.00
21664;BME280;10993;52.510;13.456;2024-02-26T05:10:19;58693.47;;;-146.93;100.00
21664;BME280;10993;52.510;13.456;2024-02-26T05:15:20;58707.66;;;-146.93;100.00
21664;BME280;10993;52.510;13.456;2024-02-26T05:20:20;58573.94;;;-146.93;100.00
21664;BME280;10993;52.510;13.456;2024-02-26T05:25:22;58744.13;;;-146.93;100.00
21664;BME280;10993;52.510;13.456;2024-02-26T05:30:22;58772.47;;;-146.93;100.00
21664;BME280;10993;52.510;13.456;2024-02-26T05:35:22;58744.13;;;-146.93;100.00
21664;BME280;10993;52.510;13.456;2024-02-26T05:40:24;58744.13;;;-146.93;100.00
21664;BME280;10993;52.510;13.456;2024-02-26T05:45:24;58731.97;;;-146.93;100.00
21664;BME280;10993;52.510;13.456;2024-02-26T05:50:24;58983.19;;;-146.93;100.00
21664;BME280;10993;52.510;13.456;2024-02-26T05:55:27;59027.75;;;-146.93;100.00
21664;BME280;10993;52.510;13.456;2024-02-26T06:00:27;58817.06;;;-146.93;100.00
21664;BME280;10993;52.510;13.456;2024-02-26T06:05:28;58774.50;;;-146.93;100.00
21664;BME280;10993;52.510;13.456;2024-02-26T06:10:29;58942.66;;;-146.93;100.00
21664;BME280;10993;52.510;13.456;2024-02-26T06:15:30;58808.94;;;-146.93;100.00
21664;BME280;10993;52.510;13.456;2024-02-26T06:20:33;58918.34;;;-146.93;100.00
21664;BME280;10993;52.510;13.456;2024-02-26T06:25:35;58659.03;;;-146.93;100.00
21664;BME280;10993;52.510;13.456;2024-02-26T06:30:35;58606.34;;;-146.93;100.00
21664;BME280;10993;52.510;13.456;2024-02-26T06:35:36;58294.38;;;-146.93;100.00
21664;BME280;10993;52.510;13.456;2024-02-26T06:40:37;58051.28;;;-146.93;100.00
21664;BME280;10993;52.510;13.456;2024-02-26T06:45:38;58116.13;;;-146.93;99.95
21664;BME280;10993;52.510;13.456;2024-02-26T06:50:38;57208.75;;;-146.93;93.39
21664;BME280;10993;52.510;13.456;2024-02-26T06:55:40;57058.91;;;-146.93;89.91
21664;BME280;10993;52.510;13.456;2024-02-26T07:00:40;56870.59;;;-146.93;86.73
21664;BME280;10993;52.510;13.456;2024-02-26T07:05:41;56775.41;;;-146.93;83.69
21664;BME280;10993;52.510;13.456;2024-02-26T07:10:42;56773.38;;;-146.93;82.58
21664;BME280;10993;52.510;13.456;2024-02-26T07:15:43;56747.06;;;-146.93;80.58
21664;BME280;10993;52.510;13.456;2024-02-26T07:20:44;56682.28;;;-146.93;77.33
21664;BME280;10993;52.510;13.456;2024-02-26T07:25:48;56591.16;;;-146.93;72.38
21664;BME280;10993;52.510;13.456;2024-02-26T07:30:50;56708.59;;;-146.93;70.00
21664;BME280;10993;52.510;13.456;2024-02-26T07:35:51;56682.28;;;-146.93;62.07
21664;BME280;10993;52.510;13.456;2024-02-26T07:40:54;56811.88;;;-146.93;55.88
21664;BME280;10993;52.510;13.456;2024-02-26T07:45:54;56684.31;;;-146.93;53.20
21664;BME280;10993;52.510;13.456;2024-02-26T07:50:55;56633.69;;;-146.93;60.13
21664;BME280;10993;52.510;13.456;2024-02-26T07:55:56;56718.72;;;-146.93;53.53
21664;BME280;10993;52.510;13.456;2024-02-26T08:00:56;56666.06;;;-146.93;49.33
21664;BME280;10993;52.510;13.456;2024-02-26T08:05:57;56670.13;;;-146.93;52.01
21664;BME280;10993;52.510;13.456;2024-02-26T08:10:59;56633.69;;;-146.93;52.97
21664;BME280;10993;52.510;13.456;2024-02-26T08:15:59;56577.00;;;-146.93;59.15
21664;BME280;10993;52.510;13.456;2024-02-26T08:21:00;56265.19;;;-146.93;62.26
21664;BME280;10993;52.510;13.456;2024-02-26T08:26:02;56647.84;;;-146.93;63.93
21664;BME280;10993;52.510;13.456;2024-02-26T08:31:04;56641.78;;;-146.93;64.29
21664;BME280;10993;52.510;13.456;2024-02-26T08:36:05;56670.13;;;-146.93;58.65
21664;BME280;10993;52.510;13.456;2024-02-26T08:41:06;56743.03;;;-146.93;47.05
21664;BME280;10993;52.510;13.456;2024-02-26T08:46:12;56803.75;;;-146.93;42.62
21664;BME280;10993;52.510;13.456;2024-02-26T08:51:13;56911.09;;;-146.93;42.04
21664;BME280;10993;52.510;13.456;2024-02-26T08:56:14;56957.66;;;-146.93;40.05
21664;BME280;10993;52.510;13.456;2024-02-26T09:01:17;57002.19;;;-146.93;39.14
21664;BME280;10993;52.510;13.456;2024-02-26T09:06:17;56864.50;;;-146.93;40.22
21664;BME280;10993;52.510;13.456;2024-02-26T09:11:19;56925.25;;;-146.93;40.06
21664;BME280;10993;52.510;13.456;2024-02-26T09:16:19;56965.75;;;-146.93;38.32
21664;BME280;10993;52.510;13.456;2024-02-26T09:21:19;57087.25;;;-146.93;37.52
21664;BME280;10993;52.510;13.456;2024-02-26T09:26:24;56909.06;;;-146.93;38.96
21664;BME280;10993;52.510;13.456;2024-02-26T09:31:25;56759.22;;;-146.93;42.58
21664;BME280;10993;52.510;13.456;2024-02-26T09:36:25;56751.13;;;-146.93;44.92
21664;BME280;10993;52.510;13.456;2024-02-26T09:41:28;56755.16;;;-146.93;43.54
21664;BME280;10993;52.510;13.456;2024-02-26T09:46:30;56795.66;;;-146.93;42.44
21664;BME280;10993;52.510;13.456;2024-02-26T09:51:31;56913.09;;;-146.93;39.89
21664;BME280;10993;52.510;13.456;2024-02-26T09:56:33;56979.94;;;-146.93;38.18
21664;BME280;10993;52.510;13.456;2024-02-26T10:01:34;57022.44;;;-146.93;37.55
21664;BME280;10993;52.510;13.456;2024-02-26T10:06:36;56933.34;;;-146.93;38.83
21664;BME280;10993;52.510;13.456;2024-02-26T10:11:40;57062.94;;;-146.93;36.86
21664;BME280;10993;52.510;13.456;2024-02-26T10:16:43;56969.81;;;-146.93;37.70
21664;BME280;10993;52.510;13.456;2024-02-26T10:21:43;56965.75;;;-146.93;37.73
21664;BME280;10993;52.510;13.456;2024-02-26T10:26:47;56992.06;;;-146.93;37.63
21664;BME280;10993;52.510;13.456;2024-02-26T10:31:47;57042.69;;;-146.93;37.23
21664;BME280;10993;52.510;13.456;2024-02-26T10:36:49;57091.31;;;-146.93;37.05
21664;BME280;10993;52.510;13.456;2024-02-26T10:41:50;57241.16;;;-146.93;34.15
21664;BME280;10993;52.510;13.456;2024-02-26T10:46:51;57026.50;;;-146.93;35.35
21664;BME280;10993;52.510;13.456;2024-02-26T10:51:56;57024.47;;;-146.93;36.35
21664;BME280;10993;52.510;13.456;2024-02-26T10:56:59;58201.19;;;-146.93;35.75
21664;BME280;10993;52.510;13.456;2024-02-26T11:02:00;57071.06;;;-146.93;35.24
21664;BME280;10993;52.510;13.456;2024-02-26T11:07:01;56990.06;;;-146.93;36.42
21664;BME280;10993;52.510;13.456;2024-02-26T11:12:04;57016.38;;;-146.93;36.61
21664;BME280;10993;52.510;13.456;2024-02-26T11:17:10;56955.63;;;-146.93;36.19
21664;BME280;10993;52.510;13.456;2024-02-26T11:22:11;56965.75;;;-146.93;36.57
21664;BME280;10993;52.510;13.456;2024-02-26T11:27:15;57022.44;;;-146.93;35.74
21664;BME280;10993;52.510;13.456;2024-02-26T11:32:18;56953.59;;;-146.93;36.24
21664;BME280;10993;52.510;13.456;2024-02-26T11:37:19;56925.25;;;-146.93;36.35
21664;BME280;10993;52.510;13.456;2024-02-26T11:42:24;56769.34;;;-146.93;37.79
21664;BME280;10993;52.510;13.456;2024-02-26T11:47:28;56807.81;;;-146.93;38.69
21664;BME280;10993;52.510;13.456;2024-02-26T11:52:32;56856.41;;;-146.93;38.14
21664;BME280;10993;52.510;13.456;2024-02-26T11:57:39;56907.03;;;-146.93;37.59
21664;BME280;10993;52.510;13.456;2024-02-26T12:02:50;56977.91;;;-146.93;37.71
21664;BME280;10993;52.510;13.456;2024-02-26T12:08:11;56838.19;;;-146.93;38.58
21664;BME280;10993;52.510;13.456;2024-02-26T12:13:15;56807.81;;;-146.93;38.34
21664;BME280;10993;52.510;13.456;2024-02-26T12:18:17;56850.34;;;-146.93;39.34
21664;BME280;10993;52.510;13.456;2024-02-26T12:23:18;56801.75;;;-146.93;39.79
21664;BME280;10993;52.510;13.456;2024-02-26T12:28:20;56913.09;;;-146.93;38.54
21664;BME280;10993;52.510;13.456;2024-02-26T12:33:20;56741.00;;;-146.93;39.94
21664;BME280;10993;52.510;13.456;2024-02-26T12:38:20;56785.53;;;-146.93;40.45
21664;BME280;10993;52.510;13.456;2024-02-26T12:43:22;56779.47;;;-146.93;40.95
21664;BME280;10993;52.510;13.456;2024-02-26T12:48:23;56734.91;;;-146.93;41.42
21664;BME280;10993;52.510;13.456;2024-02-26T12:53:23;56854.38;;;-146.93;40.12
21664;BME280;10993;52.510;13.456;2024-02-26T12:58:26;56716.69;;;-146.93;40.73
21664;BME280;10993;52.510;13.456;2024-02-26T13:03:28;56730.88;;;-146.93;40.89
21664;BME280;10993;52.510;13.456;2024-02-26T13:08:29;56732.91;;;-146.93;40.55
21664;BME280;10993;52.510;13.456;2024-02-26T13:13:30;56749.09;;;-146.93;40.30
21664;BME280;10993;52.510;13.456;2024-02-26T13:18:31;56755.16;;;-146.93;38.94
21664;BME280;10993;52.510;13.456;2024-02-26T13:23:32;56680.25;;;-146.93;39.76
21664;BME280;10993;52.510;13.456;2024-02-26T13:28:34;56730.88;;;-146.93;39.40
21664;BME280;10993;52.510;13.456;2024-02-26T13:33:34;56710.63;;;-146.93;38.49
21664;BME280;10993;52.510;13.456;2024-02-26T13:38:35;56730.88;;;-146.93;39.42
21664;BME280;10993;52.510;13.456;2024-02-26T13:43:36;56726.81;;;-146.93;39.46
21664;BME280;10993;52.510;13.456;2024-02-26T13:48:36;56736.94;;;-146.93;39.31
21664;BME280;10993;52.510;13.456;2024-02-26T13:53:37;56686.31;;;-146.93;39.53
21664;BME280;10993;52.510;13.456;2024-02-26T13:58:39;56668.09;;;-146.93;40.03
21664;BME280;10993;52.510;13.456;2024-02-26T14:03:39;57642.16;;;-146.93;40.54
21664;BME280;10993;52.510;13.456;2024-02-26T14:08:39;56601.28;;;-146.93;41.00
21664;BME280;10993;52.510;13.456;2024-02-26T14:13:41;56500.06;;;-146.93;41.69
21664;BME280;10993;52.510;13.456;2024-02-26T14:18:41;56629.63;;;-146.93;41.32
21664;BME280;10993;52.510;13.456;2024-02-26T14:23:44;56690.38;;;-146.93;41.70
21664;BME280;10993;52.510;13.456;2024-02-26T14:28:46;56637.72;;;-146.93;42.07
21664;BME280;10993;52.510;13.456;2024-02-26T14:33:46;56506.13;;;-146.93;42.27
21664;BME280;10993;52.510;13.456;2024-02-26T14:38:48;56662.03;;;-146.93;42.40
21664;BME280;10993;52.510;13.456;2024-02-26T14:43:50;56585.09;;;-146.93;43.71
21664;BME280;10993;52.510;13.456;2024-02-26T14:48:50;56589.13;;;-146.93;44.60
21664;BME280;10993;52.510;13.456;2024-02-26T14:53:50;56619.50;;;-146.93;45.00
21664;BME280;10993;52.510;13.456;2024-02-26T14:58:52;56655.94;;;-146.93;44.36
21664;BME280;10993;52.510;13.456;2024-02-26T15:03:52;56643.81;;;-146.93;44.34
21664;BME280;10993;52.510;13.456;2024-02-26T15:08:53;56649.88;;;-146.93;45.19
21664;BME280;10993;52.510;13.456;2024-02-26T15:13:54;56633.69;;;-146.93;46.26
21664;BME280;10993;52.510;13.456;2024-02-26T15:18:55;56581.03;;;-146.93;46.59
21664;BME280;10993;52.510;13.456;2024-02-26T15:23:55;56548.66;;;-146.93;47.75
21664;BME280;10993;52.510;13.456;2024-02-26T15:28:57;56589.13;;;-146.93;48.59
21664;BME280;10993;52.510;13.456;2024-02-26T15:33:57;56621.53;;;-146.93;49.39
21664;BME280;10993;52.510;13.456;2024-02-26T15:38:58;56566.88;;;-146.93;49.61
21664;BME280;10993;52.510;13.456;2024-02-26T15:43:59;56566.88;;;-146.93;50.92
21664;BME280;10993;52.510;13.456;2024-02-26T15:49:00;56587.13;;;-146.93;51.40
21664;BME280;10993;52.510;13.456;2024-02-26T15:54:01;56633.69;;;-146.93;53.52
21664;BME280;10993;52.510;13.456;2024-02-26T15:59:03;56613.44;;;-146.93;54.73
21664;BME280;10993;52.510;13.456;2024-02-26T16:04:04;56581.03;;;-146.93;56.13
21664;BME280;10993;52.510;13.456;2024-02-26T16:09:04;56613.44;;;-146.93;57.81
21664;BME280;10993;52.510;13.456;2024-02-26T16:14:11;56609.38;;;-146.93;59.95
21664;BME280;10993;52.510;13.456;2024-02-26T16:19:13;56556.75;;;-146.93;61.14
21664;BME280;10993;52.510;13.456;2024-02-26T16:24:17;56581.03;;;-146.93;62.39
21664;BME280;10993;52.510;13.456;2024-02-26T16:29:18;56605.34;;;-146.93;64.02
21664;BME280;10993;52.510;13.456;2024-02-26T16:34:20;56589.13;;;-146.93;65.02
21664;BME280;10993;52.510;13.456;2024-02-26T16:39:21;56581.03;;;-146.93;66.25
21664;BME280;10993;52.510;13.456;2024-02-26T16:44:22;56585.09;;;-146.93;67.83
21664;BME280;10993;52.510;13.456;2024-02-26T16:49:23;56591.16;;;-146.93;68.21
21664;BME280;10993;52.510;13.456;2024-02-26T16:54:23;56617.47;;;-146.93;68.71
21664;BME280;10993;52.510;13.456;2024-02-26T16:59:25;56627.59;;;-146.93;69.02
21664;BME280;10993;52.510;13.456;2024-02-26T17:04:28;56627.59;;;-146.93;69.07
21664;BME280;10993;52.510;13.456;2024-02-26T17:09:29;56625.59;;;-146.93;69.29
21664;BME280;10993;52.510;13.456;2024-02-26T17:14:31;56595.22;;;-146.93;68.77
21664;BME280;10993;52.510;13.456;2024-02-26T17:19:33;56613.44;;;-146.93;68.86
21664;BME280;10993;52.510;13.456;2024-02-26T17:24:35;56585.09;;;-146.93;69.21
21664;BME280;10993;52.510;13.456;2024-02-26T17:29:37;56657.97;;;-146.93;70.32
21664;BME280;10993;52.510;13.456;2024-02-26T17:34:37;56641.78;;;-146.93;72.38
21664;BME280;10993;52.510;13.456;2024-02-26T17:39:38;56664.06;;;-146.93;73.00
21664;BME280;10993;52.510;13.456;2024-02-26T17:44:40;56625.59;;;-146.93;74.80
21664;BME280;10993;52.510;13.456;2024-02-26T17:49:40;56682.28;;;-146.93;75.96
21664;BME280;10993;52.510;13.456;2024-02-26T17:54:40;56674.19;;;-146.93;75.63
21664;BME280;10993;52.510;13.456;2024-02-26T17:59:42;56621.53;;;-146.93;76.25
21664;BME280;10993;52.510;13.456;2024-02-26T18:04:42;56680.25;;;-146.93;77.41
21664;BME280;10993;52.510;13.456;2024-02-26T18:09:44;56710.63;;;-146.93;77.51
21664;BME280;10993;52.510;13.456;2024-02-26T18:14:46;56682.28;;;-146.93;78.25
21664;BME280;10993;52.510;13.456;2024-02-26T18:19:46;56700.50;;;-146.93;78.73
21664;BME280;10993;52.510;13.456;2024-02-26T18:24:46;56706.56;;;-146.93;79.97
21664;BME280;10993;52.510;13.456;2024-02-26T18:29:48;56674.19;;;-146.93;80.10
21664;BME280;10993;52.510;13.456;2024-02-26T18:34:48;56726.81;;;-146.93;80.07
21664;BME280;10993;52.510;13.456;2024-02-26T18:39:49;56706.56;;;-146.93;79.96
21664;BME280;10993;52.510;13.456;2024-02-26T18:44:51;56698.47;;;-146.93;79.54
21664;BME280;10993;52.510;13.456;2024-02-26T18:49:53;56649.88;;;-146.93;80.16
21664;BME280;10993;52.510;13.456;2024-02-26T18:54:55;56682.28;;;-146.93;80.12
21664;BME280;10993;52.510;13.456;2024-02-26T18:59:56;56734.91;;;-146.93;80.16
21664;BME280;10993;52.510;13.456;2024-02-26T19:04:56;56694.41;;;-146.93;79.99
21664;BME280;10993;52.510;13.456;2024-02-26T19:09:57;56694.41;;;-146.93;80.65
21664;BME280;10993;52.510;13.456;2024-02-26T19:14:58;58071.56;;;-146.93;80.65
21664;BME280;10993;52.510;13.456;2024-02-26T19:20:46;56672.16;;;-146.93;81.03
21664;BME280;10993;52.510;13.456;2024-02-26T19:26:23;56680.25;;;-146.93;80.98
21664;BME280;10993;52.510;13.456;2024-02-26T19:31:34;56672.16;;;-146.93;81.64
21664;BME280;10993;52.510;13.456;2024-02-26T19:43:07;57229.00;;;-146.93;82.29
21664;BME280;10993;52.510;13.456;2024-02-26T19:50:38;57451.78;;;-146.93;82.89
21664;BME280;10993;52.510;13.456;2024-02-26T19:53:56;56726.81;;;-146.93;82.60
21664;BME280;10993;52.510;13.456;2024-02-26T19:59:33;56641.78;;;-146.93;83.02
21664;BME280;10993;52.510;13.456;2024-02-26T20:04:50;56722.78;;;-146.93;82.82
21664;BME280;10993;52.510;13.456;2024-02-26T20:09:54;56706.56;;;-146.93;82.68
21664;BME280;10993;52.510;13.456;2024-02-26T20:14:59;56688.34;;;-146.93;83.13
21664;BME280;10993;52.510;13.456;2024-02-26T20:26:44;56714.66;;;-146.93;83.86
21664;BME280;10993;52.510;13.456;2024-02-26T20:37:53;56734.91;;;-146.93;84.24
21664;BME280;10993;52.510;13.456;2024-02-26T20:42:56;56674.19;;;-146.93;84.39
21664;BME280;10993;52.510;13.456;2024-02-26T20:48:37;56779.47;;;-146.93;84.16
21664;BME280;10993;52.510;13.456;2024-02-26T20:53:39;56765.28;;;-146.93;83.64
21664;BME280;10993;52.510;13.456;2024-02-26T20:58:46;56690.38;;;-146.93;83.65
21664;BME280;10993;52.510;13.456;2024-02-26T21:09:26;56666.06;;;-146.93;85.34
21664;BME280;10993;52.510;13.456;2024-02-26T21:20:49;56775.41;;;-146.93;85.64
21664;BME280;10993;52.510;13.456;2024-02-26T21:25:50;56765.28;;;-146.93;85.43
21664;BME280;10993;52.510;13.456;2024-02-26T21:30:51;56763.28;;;-146.93;85.73
21664;BME280;10993;52.510;13.456;2024-02-26T21:35:58;56779.47;;;-146.93;86.04
21664;BME280;10993;52.510;13.456;2024-02-26T21:41:00;56564.84;;;-146.93;86.65
21664;BME280;10993;52.510;13.456;2024-02-26T21:46:02;56811.88;;;-146.93;86.48
21664;BME280;10993;52.510;13.456;2024-02-26T21:51:04;56779.47;;;-146.93;86.54
21664;BME280;10993;52.510;13.456;2024-02-26T21:56:06;56791.63;;;-146.93;86.44
21664;BME280;10993;52.510;13.456;2024-02-26T22:01:07;56797.69;;;-146.93;86.84
21664;BME280;10993;52.510;13.456;2024-02-26T22:06:09;56674.19;;;-146.93;86.92
21664;BME280;10993;52.510;13.456;2024-02-26T22:11:09;57283.69;;;-146.93;87.25
21664;BME280;10993;52.510;13.456;2024-02-26T22:16:10;56807.81;;;-146.93;87.58
21664;BME280;10993;52.510;13.456;2024-02-26T22:21:11;56793.63;;;-146.93;87.94
21664;BME280;10993;52.510;13.456;2024-02-26T22:26:12;56832.13;;;-146.93;88.04
21664;BME280;10993;52.510;13.456;2024-02-26T22:31:12;56856.41;;;-146.93;88.47
21664;BME280;10993;52.510;13.456;2024-02-26T22:36:14;56834.13;;;-146.93;88.12
21664;BME280;10993;52.510;13.456;2024-02-26T22:41:15;56836.16;;;-146.93;88.42
21664;BME280;10993;52.510;13.456;2024-02-26T22:46:15;56787.56;;;-146.93;88.01
21664;BME280;10993;52.510;13.456;2024-02-26T22:51:17;56840.22;;;-146.93;88.48
21664;BME280;10993;52.510;13.456;2024-02-26T22:56:17;56876.66;;;-146.93;88.95
21664;BME280;10993;52.510;13.456;2024-02-26T23:01:18;56866.53;;;-146.93;88.85
21664;BME280;10993;52.510;13.456;2024-02-26T23:06:19;56836.16;;;-146.93;89.65
21664;BME280;10993;52.510;13.456;2024-02-26T23:11:20;56892.84;;;-146.93;89.12
21664;BME280;10993;52.510;13.456;2024-02-26T23:16:20;56815.91;;;-146.93;89.76
21664;BME280;10993;52.510;13.456;2024-02-26T23:21:22;56882.72;;;-146.93;90.22
21664;BME280;10993;52.510;13.456;2024-02-26T23:26:22;56900.97;;;-146.93;90.49
21664;BME280;10993;52.510;13.456;2024-02-26T23:31:23;56925.25;;;-146.93;90.42
21664;BME280;10993;52.510;13.456;2024-02-26T23:36:25;56907.03;;;-146.93;90.24
21664;BME280;10993;52.510;13.456;2024-02-26T23:41:25;56876.66;;;-146.93;90.12
21664;BME280;10993;52.510;13.456;2024-02-26T23:46:31;56797.69;;;-146.93;90.08
21664;BME280;10993;52.510;13.456;2024-02-26T23:51:33;56917.16;;;-146.93;90.56
21664;BME280;10993;52.510;13.456;2024-02-26T23:56:34;56923.22;;;-146.93;90.58
